Austin, Texas
Traffic Map
Current Weather Conditions
Austin, Texas
Clear
Clear
22°
Feels Like: 22°
Wind Chill: 22° Ceiling: Unl
Heat Index: 22° Visibility: 10mi
Dew Point: Wind: 6mph
Humidity: 41% Direction: 120° (ESE)
Pressure: 29.94in Gusts: 0mph
Raw Report DataKATT 270051Z AUTO 12005KT 10SM CLR 22/08 A2994 RMK AO2 SLP133 T02170078
Traffic Incident Summary
Active as of:
Severity:
Category:
InformationThere was an issue retrieving the traffic information for this location. Please try a different location or try again shortly.
Advertisements